イースター島 の空港の天気 - METARとTAF

マタベリ国際空港 ( SCIP / IPC ) - チリ イースター島
飛行場実況気象(Metar)
観測時間09/24 21:00 EAST (09/25 02:00 UTC)
風向・風速北西 8m/s
視程10km以上
天気現象
全天の4割程度の雲 雲底高度 490m
全天の4割程度の雲 雲底高度 1520m
全天の8割程度の雲 雲底高度 7320m
気温21℃
湿度94%
気圧1015hPa
METARSCIP 250200Z 32016KT 9999 SCT016 SCT050 BKN240 21/20 Q1015 NOSIG
過去の天気等 Google飛行場航空写真 Wunderground天気予報

過去48時間のMETAR

飛行場予報(TAF)
発表時間: 9/24 18:40 EAST (9/24 23:40 UTC)
予報対象時間: 24日19時 EAST ~ 25日19時 EAST
風向・風速北西 9m/s
視程10km以上
全天の4割程度の雲 雲底高度 460m
全天の8割程度の雲 雲底高度 1520m
24日21時 EAST ~ 25日1時 EAST に一時的に
視程8000m
天気現象弱いしゅう雨
全天の4割程度の雲 雲底高度 240m
全天の8割程度の雲 雲底高度 910m
25日2時 EAST ~ 25日4時 EAST に徐々に
視程7000m
天気現象弱い雨
全天の8割程度の雲 雲底高度 460m
全天の8割程度の雲 雲底高度 910m
25日7時 EAST ~ 25日9時 EAST に徐々に
視程5000m
天気現象弱い雨
全天の4割程度の雲 雲底高度 150m
全天を覆う雲 雲底高度 610m
25日10時 EAST ~ 25日15時 EAST に一時的に
風向・風速西北西 6m/s
視程3000m
天気現象弱い霧雨
全天の8割程度の雲 雲底高度 240m
全天を覆う雲 雲底高度 460m
TAF COR SCIP 242340Z 2500/2600 32017KT 9999 SCT015 BKN050 TN19/2510Z TX21/2520Z
TEMPO 2502/2506 8000 -SHRA SCT008 BKN030
BECMG 2507/2509 7000 -RA BKN015 BKN030
BECMG 2512/2514 5000 -RA SCT005 OVC020
TEMPO 2515/2520 29012KT 3000 -DZ BKN008 OVC015